createdAt,value
2022-12-28T00:02:20.652Z,80.80
2022-12-28T00:04:49.012Z,81.00
2022-12-28T00:07:18.646Z,81.50
2022-12-28T00:09:46.665Z,81.90
2022-12-28T00:12:16.589Z,82.20
2022-12-28T00:14:46.129Z,82.30
2022-12-28T00:17:14.435Z,82.10
2022-12-28T00:19:43.011Z,82.20
2022-12-28T00:22:11.566Z,82.30
2022-12-28T00:24:39.631Z,82.40
2022-12-28T00:27:08.187Z,82.60
2022-12-28T00:29:37.633Z,82.50
2022-12-28T00:32:06.775Z,82.70
2022-12-28T00:34:34.867Z,83.00
2022-12-28T00:37:08.387Z,82.80
2022-12-28T00:39:41.389Z,82.80
2022-12-28T00:42:09.989Z,82.80
2022-12-28T00:44:39.922Z,82.60
2022-12-28T00:47:08.075Z,82.40
2022-12-28T00:49:36.613Z,82.30
2022-12-28T00:52:04.844Z,81.90
2022-12-28T00:54:33.029Z,81.90
2022-12-28T00:57:01.125Z,81.90
2022-12-28T00:59:29.687Z,82.10
2022-12-28T01:01:59.252Z,82.00
2022-12-28T01:04:27.476Z,81.80
2022-12-28T01:06:56.053Z,81.70
2022-12-28T01:09:24.829Z,81.90
2022-12-28T01:11:52.846Z,81.90
2022-12-28T01:14:21.421Z,82.00
2022-12-28T01:16:49.519Z,82.00
2022-12-28T01:19:21.382Z,81.90
2022-12-28T01:21:50.434Z,81.80
2022-12-28T01:24:18.847Z,81.90
2022-12-28T01:26:47.441Z,81.90
2022-12-28T01:29:15.996Z,81.90
2022-12-28T01:31:44.629Z,81.80
2022-12-28T01:34:12.775Z,81.30
2022-12-28T01:36:42.734Z,81.30
2022-12-28T01:39:11.986Z,81.50
2022-12-28T01:41:42.485Z,81.90
2022-12-28T01:44:46.232Z,81.70
2022-12-28T01:47:17.977Z,82.00
2022-12-28T01:49:52.059Z,82.10
2022-12-28T01:52:25.222Z,82.10
2022-12-28T01:54:56.894Z,82.30
2022-12-28T01:57:28.945Z,82.10
2022-12-28T02:00:01.715Z,82.10
2022-12-28T02:02:31.745Z,82.10
2022-12-28T02:05:01.429Z,82.10
2022-12-28T02:07:41.055Z,82.30
2022-12-28T02:10:42.474Z,83.50
2022-12-28T02:13:01.432Z,82.80
2022-12-28T02:15:30.061Z,82.80
2022-12-28T02:17:59.768Z,82.80
2022-12-28T02:20:38.299Z,82.80
2022-12-28T02:23:35.124Z,82.90
2022-12-28T02:26:42.813Z,83.00
2022-12-28T02:29:29.283Z,82.80
2022-12-28T02:32:06.542Z,82.70
2022-12-28T02:34:40.700Z,82.70
2022-12-28T02:37:17.315Z,82.70
2022-12-28T02:39:51.442Z,82.60
2022-12-28T02:42:20.522Z,82.80
2022-12-28T02:45:04.318Z,82.80
2022-12-28T02:47:50.026Z,82.60
2022-12-28T02:50:19.631Z,82.60
2022-12-28T02:53:11.999Z,82.60
2022-12-28T02:56:08.735Z,82.80
2022-12-28T02:59:10.748Z,83.80
2022-12-28T03:02:10.732Z,82.80
2022-12-28T03:04:56.346Z,83.60
2022-12-28T03:07:48.705Z,82.80
2022-12-28T03:10:22.795Z,82.90
2022-12-28T03:12:58.316Z,82.90
2022-12-28T03:15:33.044Z,82.80
2022-12-28T03:18:24.450Z,82.80
2022-12-28T03:21:14.712Z,82.80
2022-12-28T03:24:03.461Z,82.80
2022-12-28T03:26:54.842Z,82.80
2022-12-28T03:29:43.762Z,82.90
2022-12-28T03:32:13.327Z,83.00
2022-12-28T03:34:43.711Z,83.00
2022-12-28T03:37:19.211Z,82.90
2022-12-28T03:39:53.043Z,83.00
2022-12-28T03:42:45.925Z,82.90
2022-12-28T03:45:45.800Z,82.80
2022-12-28T03:48:11.872Z,83.00
2022-12-28T03:50:45.748Z,83.20
2022-12-28T03:53:14.222Z,83.20
2022-12-28T03:55:43.872Z,83.20
2022-12-28T03:58:12.076Z,83.20
2022-12-28T04:00:40.659Z,83.20
2022-12-28T04:03:09.286Z,83.10
2022-12-28T04:05:37.831Z,83.10
2022-12-28T04:08:07.862Z,83.00
2022-12-28T04:10:35.920Z,83.90
2022-12-28T04:13:04.444Z,83.10
2022-12-28T04:15:33.014Z,83.40
2022-12-28T04:18:01.956Z,83.30
2022-12-28T04:20:30.606Z,83.50
2022-12-28T04:22:58.681Z,84.60
2022-12-28T04:25:28.594Z,83.60
2022-12-28T04:27:57.192Z,83.60
2022-12-28T04:30:25.282Z,83.60
2022-12-28T04:32:54.031Z,83.50
2022-12-28T04:35:22.169Z,83.60
2022-12-28T04:37:50.415Z,83.60
2022-12-28T04:40:18.988Z,83.70
2022-12-28T04:42:48.455Z,83.60
2022-12-28T04:45:21.982Z,83.40
2022-12-28T04:47:51.012Z,83.40
2022-12-28T04:50:19.391Z,83.50
2022-12-28T04:52:47.948Z,83.40
2022-12-28T04:55:32.053Z,83.40
2022-12-28T04:58:02.844Z,83.40
2022-12-28T05:00:31.437Z,83.50
2022-12-28T05:03:00.881Z,83.50
2022-12-28T05:05:29.904Z,83.50
2022-12-28T05:08:02.460Z,83.60
2022-12-28T05:10:31.569Z,83.80
2022-12-28T05:12:59.683Z,83.60
2022-12-28T05:15:29.644Z,83.40
2022-12-28T05:17:57.707Z,83.50
2022-12-28T05:20:26.317Z,83.40
2022-12-28T05:22:54.392Z,83.30
2022-12-28T05:25:23.202Z,83.30
2022-12-28T05:27:51.275Z,83.40
2022-12-28T05:30:19.502Z,83.30
2022-12-28T05:32:49.440Z,83.60
2022-12-28T05:35:18.120Z,83.50
2022-12-28T05:37:46.755Z,83.60
2022-12-28T05:40:14.899Z,83.40
2022-12-28T05:42:49.492Z,83.40
2022-12-28T05:45:19.999Z,83.10
2022-12-28T05:47:49.497Z,83.50
2022-12-28T05:50:18.224Z,83.40
2022-12-28T05:52:46.871Z,83.50
2022-12-28T05:55:14.949Z,83.60
2022-12-28T05:57:43.523Z,83.50
2022-12-28T06:00:13.098Z,83.50
2022-12-28T06:02:41.730Z,83.50
2022-12-28T06:05:11.919Z,83.30
2022-12-28T06:07:39.981Z,82.80
2022-12-28T06:10:09.238Z,83.30
2022-12-28T06:12:37.812Z,83.40
2022-12-28T06:15:07.043Z,83.30
2022-12-28T06:17:35.574Z,83.50
2022-12-28T06:20:03.677Z,83.50
2022-12-28T06:22:33.586Z,83.40
2022-12-28T06:25:01.685Z,83.30
2022-12-28T06:27:29.756Z,83.30
2022-12-28T06:29:57.830Z,83.30
2022-12-28T06:32:25.920Z,83.30
2022-12-28T06:34:54.420Z,83.40
2022-12-28T06:37:22.502Z,83.50
2022-12-28T06:39:51.942Z,83.50
2022-12-28T06:42:19.986Z,83.50
2022-12-28T06:44:48.055Z,83.50
2022-12-28T06:47:16.658Z,83.60
2022-12-28T06:49:44.720Z,83.70
2022-12-28T06:52:13.375Z,83.80
2022-12-28T06:54:41.458Z,83.70
2022-12-28T06:57:11.422Z,83.70
2022-12-28T06:59:39.491Z,83.60
2022-12-28T07:02:08.412Z,83.60
2022-12-28T07:04:36.918Z,83.60
2022-12-28T07:07:05.539Z,83.70
2022-12-28T07:09:33.619Z,83.80
2022-12-28T07:12:02.185Z,83.70
2022-12-28T07:14:32.356Z,83.80
2022-12-28T07:17:01.210Z,83.80
2022-12-28T07:19:29.319Z,83.80
2022-12-28T07:21:57.860Z,83.50
2022-12-28T07:24:26.474Z,83.60
2022-12-28T07:26:55.050Z,83.50
2022-12-28T07:29:23.241Z,83.70
2022-12-28T07:31:53.214Z,83.60
2022-12-28T07:34:21.290Z,83.70
2022-12-28T07:36:50.780Z,83.80
2022-12-28T07:39:19.270Z,83.90
2022-12-28T07:41:47.340Z,83.80
2022-12-28T07:44:15.884Z,83.80
2022-12-28T07:46:43.962Z,83.80
2022-12-28T07:49:13.869Z,84.00
2022-12-28T07:51:42.371Z,84.00
2022-12-28T07:54:11.007Z,84.10
2022-12-28T07:59:07.646Z,84.20
2022-12-28T08:01:38.396Z,84.20
2022-12-28T08:04:09.184Z,84.20
2022-12-28T08:06:41.255Z,84.20
2022-12-28T08:09:10.600Z,84.20
2022-12-28T08:11:41.262Z,84.20
2022-12-28T08:14:10.087Z,84.20
2022-12-28T08:16:40.571Z,84.20
2022-12-28T08:19:10.037Z,84.30
2022-12-28T08:21:42.624Z,84.30
2022-12-28T08:24:15.004Z,84.20
2022-12-28T08:26:43.891Z,84.30
2022-12-28T08:29:15.028Z,84.40
2022-12-28T08:31:45.582Z,84.40
2022-12-28T08:34:16.556Z,84.50
2022-12-28T08:36:46.560Z,84.50
2022-12-28T08:39:15.178Z,84.50
2022-12-28T08:41:43.765Z,84.50
2022-12-28T08:44:12.467Z,84.50
2022-12-28T08:46:42.671Z,84.40
2022-12-28T08:49:11.423Z,84.50
2022-12-28T08:51:42.315Z,84.50
2022-12-28T08:54:13.635Z,84.80
2022-12-28T08:56:44.680Z,84.60
2022-12-28T08:59:16.211Z,84.60
2022-12-28T09:01:44.993Z,84.70
2022-12-28T09:04:16.046Z,84.60
2022-12-28T09:06:44.241Z,84.60
2022-12-28T09:09:15.318Z,84.70
2022-12-28T09:11:44.946Z,84.70
2022-12-28T09:14:22.089Z,84.70
2022-12-28T09:16:51.721Z,84.70
2022-12-28T09:19:20.065Z,84.60
2022-12-28T09:21:49.607Z,84.60
2022-12-28T09:24:19.652Z,84.60
2022-12-28T09:26:47.709Z,84.60
2022-12-28T09:29:16.318Z,84.60
2022-12-28T09:31:44.744Z,84.60
2022-12-28T09:37:03.308Z,84.60
2022-12-28T09:39:33.438Z,84.60
2022-12-28T09:42:05.331Z,84.60
2022-12-28T09:44:56.119Z,84.50
2022-12-28T09:47:30.320Z,84.50
2022-12-28T09:50:30.510Z,84.50
2022-12-28T09:53:25.170Z,84.40
2022-12-28T09:56:01.198Z,84.50
2022-12-28T09:58:30.863Z,84.40
2022-12-28T10:01:01.433Z,84.40
2022-12-28T10:03:37.137Z,84.40
2022-12-28T10:06:11.507Z,84.30
2022-12-28T10:08:45.002Z,84.40
2022-12-28T10:11:18.584Z,84.30
2022-12-28T10:13:55.646Z,84.30
2022-12-28T10:16:26.596Z,84.20
2022-12-28T10:18:55.660Z,84.20
2022-12-28T10:21:31.932Z,84.20
2022-12-28T10:26:52.698Z,84.30
2022-12-28T10:29:23.528Z,85.10
2022-12-28T10:32:01.379Z,84.30
2022-12-28T10:34:34.755Z,84.30
2022-12-28T10:37:14.587Z,84.30
2022-12-28T10:39:50.592Z,84.10
2022-12-28T10:42:28.851Z,84.10
2022-12-28T10:45:06.203Z,85.10
2022-12-28T10:47:37.390Z,84.20
2022-12-28T10:52:59.620Z,84.10
2022-12-28T10:55:29.946Z,84.00
2022-12-28T10:58:34.164Z,83.90
2022-12-28T11:01:07.761Z,83.90
2022-12-28T11:03:37.840Z,83.80
2022-12-28T11:06:12.485Z,83.90
2022-12-28T11:08:42.997Z,83.60
2022-12-28T11:11:20.831Z,83.90
2022-12-28T11:13:55.918Z,83.80
2022-12-28T11:16:24.005Z,83.70
2022-12-28T11:18:52.875Z,83.60
2022-12-28T11:21:23.181Z,83.60
2022-12-28T11:23:53.055Z,83.70
2022-12-28T11:26:22.613Z,83.70
2022-12-28T11:28:54.160Z,83.80
2022-12-28T11:31:27.443Z,83.90
2022-12-28T11:34:00.054Z,83.60
2022-12-28T11:36:29.310Z,83.60
2022-12-28T11:38:58.298Z,84.50
2022-12-28T11:41:56.362Z,83.30
2022-12-28T11:44:53.430Z,82.90
2022-12-28T11:47:33.569Z,82.40
2022-12-28T11:50:42.641Z,82.80
2022-12-28T11:53:44.689Z,82.30
2022-12-28T11:56:14.356Z,82.30
2022-12-28T11:59:04.822Z,82.60
2022-12-28T12:01:48.179Z,82.30
2022-12-28T12:04:41.799Z,81.80
2022-12-28T12:07:47.719Z,81.90
2022-12-28T12:10:34.021Z,81.90
2022-12-28T12:13:18.677Z,82.10
2022-12-28T12:15:47.382Z,82.30
2022-12-28T12:18:22.436Z,82.40
2022-12-28T12:20:55.160Z,83.30
2022-12-28T12:23:31.968Z,82.40
2022-12-28T12:26:02.482Z,82.50
2022-12-28T12:28:39.112Z,82.40
2022-12-28T12:31:13.508Z,82.60
2022-12-28T12:33:47.628Z,82.60
2022-12-28T12:36:40.356Z,82.60
2022-12-28T12:39:36.446Z,82.60
2022-12-28T12:42:12.542Z,82.60
2022-12-28T12:44:48.784Z,82.60
2022-12-28T12:47:45.560Z,82.80
2022-12-28T12:50:52.637Z,82.60
2022-12-28T12:53:33.807Z,82.70
2022-12-28T12:56:09.589Z,82.80
2022-12-28T12:58:50.163Z,83.00
2022-12-28T13:01:30.795Z,83.00
2022-12-28T13:04:07.026Z,82.80
2022-12-28T13:06:36.717Z,82.80
2022-12-28T13:09:07.666Z,82.60
2022-12-28T13:11:38.913Z,82.30
2022-12-28T13:14:08.254Z,82.10
2022-12-28T13:16:36.350Z,81.90
2022-12-28T13:19:07.334Z,81.80
2022-12-28T13:21:43.038Z,81.60
2022-12-28T13:24:23.252Z,81.40
2022-12-28T13:26:52.139Z,80.80
2022-12-28T13:29:40.240Z,81.10
2022-12-28T13:32:26.519Z,80.40
2022-12-28T13:34:55.100Z,80.30
2022-12-28T13:37:24.834Z,80.70
2022-12-28T13:40:10.229Z,80.70
2022-12-28T13:42:46.268Z,80.60
2022-12-28T13:45:17.151Z,80.80
2022-12-28T13:47:49.949Z,80.90
2022-12-28T13:50:21.812Z,81.00
2022-12-28T13:52:56.717Z,81.00
2022-12-28T13:55:30.971Z,80.90
2022-12-28T13:58:03.664Z,81.00
2022-12-28T14:00:33.628Z,81.00
2022-12-28T14:03:10.762Z,81.20
2022-12-28T14:05:43.760Z,80.30
2022-12-28T14:08:12.582Z,81.40
2022-12-28T14:10:43.380Z,81.40
2022-12-28T14:13:12.163Z,81.40
2022-12-28T14:15:42.273Z,81.40
2022-12-28T14:18:14.783Z,81.50
2022-12-28T14:20:50.739Z,81.50
2022-12-28T14:23:24.237Z,81.50
2022-12-28T14:25:55.158Z,81.50
2022-12-28T14:28:33.037Z,81.50
2022-12-28T14:31:01.360Z,81.60
2022-12-28T14:33:32.678Z,81.70
2022-12-28T14:36:04.588Z,81.80
2022-12-28T14:38:35.538Z,81.80
2022-12-28T14:41:06.792Z,81.90
2022-12-28T14:43:37.090Z,81.90
2022-12-28T14:46:17.565Z,81.80
2022-12-28T14:48:46.153Z,81.70
2022-12-28T14:51:30.292Z,81.70
2022-12-28T14:54:20.277Z,81.80
2022-12-28T14:56:55.283Z,81.80
2022-12-28T14:59:28.842Z,81.70
2022-12-28T15:01:57.092Z,81.80
2022-12-28T15:04:40.280Z,81.90
2022-12-28T15:07:10.238Z,81.90
2022-12-28T15:09:39.246Z,81.80
2022-12-28T15:12:17.737Z,81.90
2022-12-28T15:14:46.707Z,81.90
2022-12-28T15:17:16.656Z,82.00
2022-12-28T15:19:46.505Z,82.10
2022-12-28T15:22:14.751Z,82.10
2022-12-28T15:24:45.821Z,82.00
2022-12-28T15:27:15.256Z,81.90
2022-12-28T15:30:04.887Z,81.90
2022-12-28T15:32:33.374Z,81.80
2022-12-28T15:35:01.448Z,81.80
2022-12-28T15:37:30.007Z,81.90
2022-12-28T15:39:58.086Z,82.00
2022-12-28T15:42:28.001Z,82.10
2022-12-28T15:44:56.080Z,81.80
2022-12-28T15:47:24.709Z,81.90
2022-12-28T15:49:53.284Z,82.00
2022-12-28T15:52:21.837Z,81.80
2022-12-28T15:54:49.975Z,81.90
2022-12-28T15:57:18.550Z,82.10
2022-12-28T15:59:48.582Z,82.10
2022-12-28T16:02:17.469Z,83.00
2022-12-28T16:04:45.725Z,83.00
2022-12-28T16:07:14.390Z,82.10
2022-12-28T16:09:43.023Z,82.10
2022-12-28T16:12:11.113Z,81.80
2022-12-28T16:14:40.602Z,81.70
2022-12-28T16:17:10.094Z,81.70
2022-12-28T16:19:39.346Z,81.90
2022-12-28T16:22:07.380Z,81.80
2022-12-28T16:24:36.731Z,81.70
2022-12-28T16:27:05.620Z,81.90
2022-12-28T16:29:33.723Z,81.90
2022-12-28T16:32:02.941Z,81.70
2022-12-28T16:34:32.695Z,82.50
2022-12-28T16:37:01.423Z,81.40
2022-12-28T16:39:30.671Z,81.50
2022-12-28T16:41:59.533Z,81.70
2022-12-28T16:44:30.841Z,81.50
2022-12-28T16:46:59.720Z,81.50
2022-12-28T16:49:34.921Z,81.50
2022-12-28T16:52:02.989Z,81.60
2022-12-28T16:54:31.590Z,81.30
2022-12-28T16:57:00.186Z,81.30
2022-12-28T16:59:30.175Z,81.40
2022-12-28T17:01:59.489Z,81.50
2022-12-28T17:04:27.913Z,81.50
2022-12-28T17:06:57.897Z,81.40
2022-12-28T17:09:25.989Z,81.20
2022-12-28T17:11:54.108Z,81.10
2022-12-28T17:14:36.841Z,81.10
2022-12-28T17:17:06.537Z,81.20
2022-12-28T17:19:35.555Z,81.30
2022-12-28T17:22:05.512Z,81.30
2022-12-28T17:24:34.063Z,81.40
2022-12-28T17:27:07.770Z,81.60
2022-12-28T17:29:37.737Z,81.50
2022-12-28T17:32:06.233Z,81.40
2022-12-28T17:34:34.761Z,81.50
2022-12-28T17:37:04.746Z,81.40
2022-12-28T17:39:39.592Z,81.90
2022-12-28T17:42:09.273Z,81.30
2022-12-28T17:44:37.354Z,81.20
2022-12-28T17:47:06.081Z,81.00
2022-12-28T17:49:34.178Z,81.20
2022-12-28T17:52:02.297Z,81.30
2022-12-28T17:54:31.845Z,81.30
2022-12-28T17:57:00.399Z,81.00
2022-12-28T17:59:29.203Z,80.80
2022-12-28T18:01:57.996Z,80.70
2022-12-28T18:04:26.320Z,80.10
2022-12-28T18:06:54.961Z,80.30
2022-12-28T18:09:27.670Z,80.30
2022-12-28T18:11:58.092Z,80.00
2022-12-28T18:14:26.235Z,80.10
2022-12-28T18:17:00.421Z,80.40
2022-12-28T18:19:28.557Z,80.00
2022-12-28T18:21:57.132Z,80.00
2022-12-28T18:24:25.229Z,80.00
2022-12-28T18:26:53.815Z,80.00
2022-12-28T18:29:23.308Z,80.20
2022-12-28T18:31:57.759Z,80.10
2022-12-28T18:34:26.492Z,80.20
2022-12-28T18:36:55.933Z,80.20
2022-12-28T18:39:24.969Z,81.00
2022-12-28T18:41:53.951Z,80.20
2022-12-28T18:44:24.921Z,80.30
2022-12-28T18:46:53.193Z,80.10
2022-12-28T18:49:22.277Z,80.20
2022-12-28T18:51:50.365Z,80.10
2022-12-28T18:54:18.479Z,80.00
2022-12-28T18:56:47.117Z,80.00
2022-12-28T18:59:15.283Z,80.10
2022-12-28T19:04:33.098Z,79.60
2022-12-28T19:07:01.953Z,79.70
2022-12-28T19:09:31.042Z,79.70
2022-12-28T19:11:59.192Z,79.60
2022-12-28T19:14:27.808Z,79.30
2022-12-28T19:16:57.299Z,79.70
2022-12-28T19:19:25.837Z,79.50
2022-12-28T19:21:58.688Z,79.70
2022-12-28T19:24:27.774Z,79.70
2022-12-28T19:26:56.819Z,79.30
2022-12-28T19:29:24.933Z,79.60
2022-12-28T19:31:56.185Z,79.70
2022-12-28T19:34:25.671Z,79.60
2022-12-28T19:36:53.727Z,79.60
2022-12-28T19:39:22.529Z,79.40
2022-12-28T19:41:51.269Z,80.50
2022-12-28T19:44:22.339Z,79.30
2022-12-28T19:46:51.448Z,79.40
2022-12-28T19:49:19.720Z,79.60
2022-12-28T19:51:51.375Z,79.70
2022-12-28T19:54:19.939Z,79.80
2022-12-28T19:56:48.040Z,79.50
2022-12-28T19:59:16.176Z,79.50
2022-12-28T20:01:44.886Z,79.50
2022-12-28T20:04:14.600Z,79.30
2022-12-28T20:06:44.345Z,79.10
2022-12-28T20:09:15.360Z,79.50
2022-12-28T20:11:44.869Z,79.40
2022-12-28T20:14:19.088Z,79.40
2022-12-28T20:16:52.479Z,79.40
2022-12-28T20:19:21.057Z,79.50
2022-12-28T20:21:49.563Z,79.50
2022-12-28T20:24:21.632Z,79.20
2022-12-28T20:26:49.978Z,79.40
2022-12-28T20:29:18.531Z,79.40
2022-12-28T20:31:47.359Z,79.00
2022-12-28T20:34:15.527Z,79.20
2022-12-28T20:36:44.359Z,79.30
2022-12-28T20:39:13.013Z,79.30
2022-12-28T20:42:00.159Z,79.50
2022-12-28T20:44:31.810Z,79.30
2022-12-28T20:47:01.712Z,79.60
2022-12-28T20:49:33.184Z,79.50
2022-12-28T20:52:01.824Z,79.30
2022-12-28T20:54:29.931Z,79.40
2022-12-28T20:56:59.902Z,79.20
2022-12-28T20:59:28.625Z,79.30
2022-12-28T21:01:56.806Z,79.30
2022-12-28T21:04:26.031Z,79.40
2022-12-28T21:06:54.977Z,79.30
2022-12-28T21:09:23.852Z,79.30
2022-12-28T21:11:52.022Z,79.40
2022-12-28T21:14:22.240Z,79.40
2022-12-28T21:16:50.401Z,79.40
2022-12-28T21:19:19.052Z,79.30
2022-12-28T21:21:48.607Z,79.10
2022-12-28T21:24:16.699Z,79.30
2022-12-28T21:26:44.761Z,79.30
2022-12-28T21:29:13.349Z,79.30
2022-12-28T21:31:42.864Z,79.20
2022-12-28T21:34:11.448Z,79.30
2022-12-28T21:36:39.571Z,79.20
2022-12-28T21:39:08.312Z,79.20
2022-12-28T21:41:52.906Z,79.10
2022-12-28T21:44:23.118Z,79.30
2022-12-28T21:46:54.134Z,79.50
2022-12-28T21:49:23.371Z,79.40
2022-12-28T21:51:51.660Z,79.30
2022-12-28T21:54:22.748Z,79.30
2022-12-28T21:56:52.034Z,79.40
2022-12-28T21:59:21.096Z,79.30
2022-12-28T22:02:07.325Z,79.40
2022-12-28T22:05:01.775Z,79.50
2022-12-28T22:07:31.341Z,79.50
2022-12-28T22:10:17.247Z,80.40
2022-12-28T22:12:45.329Z,79.50
2022-12-28T22:15:33.546Z,79.30
2022-12-28T22:18:02.967Z,79.30
2022-12-28T22:20:34.897Z,79.40
2022-12-28T22:23:03.799Z,79.60
2022-12-28T22:25:32.207Z,79.50
2022-12-28T22:28:01.075Z,79.30
2022-12-28T22:30:30.720Z,79.30
2022-12-28T22:32:59.409Z,79.50
2022-12-28T22:35:27.655Z,79.40
2022-12-28T22:37:57.863Z,79.50
2022-12-28T22:40:26.376Z,79.70
2022-12-28T22:42:56.178Z,79.70
2022-12-28T22:45:24.876Z,79.50
2022-12-28T22:47:59.364Z,79.40
2022-12-28T22:50:28.957Z,79.50
2022-12-28T22:52:59.739Z,79.30
2022-12-28T22:55:27.869Z,79.00
2022-12-28T22:57:56.454Z,79.30
2022-12-28T23:00:24.631Z,79.10
2022-12-28T23:02:52.898Z,78.90
2022-12-28T23:05:21.595Z,78.90
2022-12-28T23:07:50.124Z,79.10
2022-12-28T23:10:19.667Z,79.20
2022-12-28T23:12:48.184Z,79.20
2022-12-28T23:15:20.150Z,79.10
2022-12-28T23:17:49.838Z,78.90
2022-12-28T23:20:36.229Z,78.90
2022-12-28T23:23:22.162Z,78.90
2022-12-28T23:26:09.309Z,78.90
2022-12-28T23:28:37.402Z,79.10
2022-12-28T23:31:06.350Z,79.10
2022-12-28T23:33:34.592Z,79.10
2022-12-28T23:36:04.106Z,79.00
2022-12-28T23:38:33.557Z,79.00
2022-12-28T23:41:24.022Z,79.00
2022-12-28T23:43:52.665Z,78.80
2022-12-28T23:46:21.336Z,78.90
2022-12-28T23:48:49.421Z,78.90
2022-12-28T23:51:18.123Z,78.90
2022-12-28T23:53:46.738Z,79.10
2022-12-28T23:56:16.672Z,78.50
2022-12-28T23:58:45.218Z,78.70
